P/v Golden Gate — WDE5665 — position and weather

sailwx.info

Track history (hours):
 
Tides and Currents Weather Stations Pressure Air Temp Water Temp Dewpoint Dewpoint Depression Visibility Wind Speed Wind Dir Waves Ship Positions

P/v Golden Gate

Owner: San Francisco Bar Pilots Benevolent and Protective, San Francisco, CA. More information available from US FCC via Universal Licensing System and Coast Guard Vessel Documentation Center.

Last reported at 2016-Aug-26 04:33 UTC. Time now 2016-Aug-26 06:48 UTC.
Position N 37°48' W 122°24'.

Length 23 m; draft 2 m.

Type: Pilot. MMSI: 367370010.

Date/timePositionNaut miles runAvg speedWind from/ knotsBaromVisibWave heightAir tempDewpointWater temp
2016-Aug-26 04:33N 37°48' W 122°24'0 0.0
2016-Aug-26 03:33N 37°48' W 122°24'0 0.0
2016-Aug-26 02:33N 37°48' W 122°24'8 7.3
2016-Aug-26 01:26N 37°47' W 122°34'8 9.4
2016-Aug-26 00:33N 37°48' W 122°24'0 0.0
2016-Aug-25 23:34N 37°48' W 122°24'3 3.4
2016-Aug-25 22:34N 37°45' W 122°21'1111.0
2016-Aug-25 21:34N 37°47' W 122°35'9 8.9
2016-Aug-25 20:33N 37°48' W 122°24'0 0.2
2016-Aug-25 19:33N 37°48' W 122°24'0 0.0
2016-Aug-25 18:33N 37°48' W 122°24'0 0.0
2016-Aug-25 17:33N 37°48' W 122°24'1 1.0
2016-Aug-25 16:33N 37°49' W 122°25'1 0.5
2016-Aug-25 15:33N 37°49' W 122°25'3 2.9
2016-Aug-25 14:34N 37°48' W 122°22'2 1.6
2016-Aug-25 13:33N 37°48' W 122°20'3 3.3
2016-Aug-25 12:33N 37°48' W 122°24'0 0.0
2016-Aug-25 11:33N 37°48' W 122°24'0 0.0
2016-Aug-25 10:33N 37°48' W 122°24'0 0.0
2016-Aug-25 09:33N 37°48' W 122°24'3 3.3
2016-Aug-25 08:34N 37°46' W 122°21'3 3.3
2016-Aug-25 07:34N 37°48' W 122°24'0 0.0
2016-Aug-25 06:34N 37°48' W 122°24'1 0.4
2016-Aug-25 04:33N 37°48' W 122°23'1 0.8
2016-Aug-25 03:33N 37°48' W 122°24'0 0.1
2016-Aug-25 02:34N 37°48' W 122°24'1 1.0
2016-Aug-25 01:34N 37°49' W 122°25'1 1.1
2016-Aug-25 00:33N 37°48' W 122°24'0 0.0
2016-Aug-24 23:34N 37°48' W 122°24'0 0.0
2016-Aug-24 22:33N 37°48' W 122°24'0 0.0
2016-Aug-24 21:33N 37°48' W 122°24'1 1.2
2016-Aug-24 20:33N 37°49' W 122°25'1 1.2
2016-Aug-24 19:33N 37°48' W 122°24'0 0.0
2016-Aug-24 18:34N 37°48' W 122°24'0 0.0
2016-Aug-24 17:33N 37°48' W 122°24'5 4.7
2016-Aug-24 16:33N 37°48' W 122°18'5 4.7
2016-Aug-24 15:34N 37°48' W 122°24'0 0.5
2016-Aug-24 14:34N 37°48' W 122°23'4 3.7
2016-Aug-24 13:33N 37°48' W 122°19'4 4.1
2016-Aug-24 12:33N 37°48' W 122°24'0 0.0
2016-Aug-24 11:33N 37°48' W 122°24'0 0.0
2016-Aug-24 10:33N 37°48' W 122°24'0 0.0
2016-Aug-24 09:33N 37°48' W 122°24'0 0.0
2016-Aug-24 08:33N 37°48' W 122°24'0 0.0
2016-Aug-24 07:33N 37°48' W 122°24'0 0.0
2016-Aug-24 06:33N 37°48' W 122°24'0 0.0
2016-Aug-24 04:33N 37°48' W 122°24'0 0.0
2016-Aug-24 03:33N 37°48' W 122°24'0 0.0
2016-Aug-24 02:33N 37°48' W 122°24'0 0.0
2016-Aug-24 01:33N 37°48' W 122°24'0 0.1
2016-Aug-24 00:34N 37°48' W 122°24'0 0.1
2016-Aug-23 23:34N 37°48' W 122°24'0 0.0
2016-Aug-23 22:32N 37°48' W 122°24'0 0.0
2016-Aug-23 21:34N 37°48' W 122°24'0 0.0
2016-Aug-23 20:33N 37°48' W 122°24'1 0.7
2016-Aug-23 19:33N 37°48' W 122°23'2 1.9
2016-Aug-23 18:33N 37°49' W 122°25'1 1.1
2016-Aug-23 17:33N 37°50' W 122°25'2 2.1
2016-Aug-23 16:33N 37°49' W 122°27'6 6.0
2016-Aug-23 15:34N 37°48' W 122°20'3 3.1
2016-Aug-23 14:33N 37°48' W 122°24'0 0.0
2016-Aug-23 13:33N 37°48' W 122°24'3 3.3
2016-Aug-23 12:34N 37°48' W 122°20'3 3.3
2016-Aug-23 11:33N 37°48' W 122°24'4 4.2
2016-Aug-23 10:34N 37°45' W 122°21'4 4.2
2016-Aug-23 09:33N 37°48' W 122°24'3 3.2
2016-Aug-23 08:33N 37°48' W 122°20'3 2.7
2016-Aug-23 07:34N 37°45' W 122°21'4 3.6
2016-Aug-23 06:33N 37°48' W 122°24'0 0.0
2016-Aug-23 05:33N 37°48' W 122°24'4 3.7
2016-Aug-23 04:33N 37°49' W 122°28'6 5.4
2016-Aug-23 03:31N 37°47' W 122°35'9 9.1
2016-Aug-23 02:33N 37°48' W 122°24'0 0.0
2016-Aug-23 01:33N 37°48' W 122°24'3 3.1
2016-Aug-23 00:33N 37°45' W 122°23'3 3.1
2016-Aug-22 23:33N 37°48' W 122°24'0 0.0
2016-Aug-22 22:34N 37°48' W 122°24'0 0.2
2016-Aug-22 21:34N 37°48' W 122°24'1212.3
2016-Aug-22 20:33N 37°45' W 122°39'1212.3
2016-Aug-22 19:33N 37°48' W 122°24'0 0.0
2016-Aug-22 18:33N 37°48' W 122°24'0 0.0
2016-Aug-22 17:33N 37°48' W 122°24'2 2.0
2016-Aug-22 16:33N 37°47' W 122°22'2 2.0
2016-Aug-22 15:33N 37°48' W 122°24'0 0.0
2016-Aug-22 14:33N 37°48' W 122°24'1 1.2
2016-Aug-22 13:34N 37°49' W 122°25'1 1.2
2016-Aug-22 12:33N 37°48' W 122°24'1311.7
2016-Aug-22 11:29N 37°46' W 122°39'1314.3
2016-Aug-22 10:33N 37°49' W 122°23'3 2.9
2016-Aug-22 09:34N 37°48' W 122°20'3 3.3
2016-Aug-22 08:34N 37°48' W 122°24'3 2.6
2016-Aug-22 07:34N 37°46' W 122°21'5 5.0
2016-Aug-22 06:33N 37°49' W 122°27'3 2.5
2016-Aug-22 05:33N 37°48' W 122°24'3 3.0
2016-Aug-22 04:33N 37°46' W 122°21'2 2.2
2016-Aug-22 03:33N 37°48' W 122°21'2 1.9
2016-Aug-22 02:33N 37°48' W 122°24'0 0.0
2016-Aug-22 01:33N 37°48' W 122°24'0 0.0
2016-Aug-22 00:33N 37°48' W 122°24'1 1.1
2016-Aug-21 23:34N 37°49' W 122°25'1 1.1
2016-Aug-21 22:34N 37°48' W 122°24'1110.9
2016-Aug-21 21:33N 37°46' W 122°37'1110.8
2016-Aug-21 20:33N 37°48' W 122°24'0 0.0
2016-Aug-21 19:33N 37°48' W 122°24'0 0.0
2016-Aug-21 18:33N 37°48' W 122°24'0 0.0
2016-Aug-21 17:33N 37°48' W 122°24'0 0.0
2016-Aug-21 16:33N 37°48' W 122°24'0 0.0
2016-Aug-21 15:33N 37°48' W 122°24'0 0.0
2016-Aug-21 14:33N 37°48' W 122°24'0 0.0
2016-Aug-21 13:33N 37°48' W 122°24'0 0.0
2016-Aug-21 12:33N 37°48' W 122°24'3 3.1
2016-Aug-21 11:34N 37°46' W 122°21'3 3.1
2016-Aug-21 10:34N 37°48' W 122°24'1111.1
2016-Aug-21 09:33N 37°46' W 122°38'1211.6
2016-Aug-21 08:34N 37°48' W 122°23'0 0.4
2016-Aug-21 07:33N 37°48' W 122°24'0 0.0
2016-Aug-21 06:33N 37°48' W 122°24'1 1.0
2016-Aug-21 05:33N 37°48' W 122°23'1 1.1
2016-Aug-21 04:34N 37°47' W 122°22'2 1.8
2016-Aug-21 03:33N 37°48' W 122°24'0 0.3
2016-Aug-21 02:33N 37°48' W 122°23'7 7.2
2016-Aug-21 01:33N 37°48' W 122°33'7 7.1
2016-Aug-21 00:34N 37°48' W 122°24'0 0.0
2016-Aug-20 23:33N 37°48' W 122°24'0 0.0
2016-Aug-20 22:33N 37°48' W 122°24'0 0.0
2016-Aug-20 21:33N 37°48' W 122°24'0 0.0
2016-Aug-20 20:34N 37°48' W 122°24'4 4.1
2016-Aug-20 19:34N 37°49' W 122°29'4 4.1
2016-Aug-20 18:34N 37°48' W 122°24'1 0.7
2016-Aug-20 17:34N 37°49' W 122°24'1 0.7
2016-Aug-20 16:33N 37°48' W 122°24'5 4.9
2016-Aug-20 15:33N 37°44' W 122°20'6 4.6
2016-Aug-20 14:15N 37°49' W 122°25'1 1.8
2016-Aug-20 13:33N 37°48' W 122°24'3 2.7
2016-Aug-20 12:33N 37°49' W 122°27'3 2.7
2016-Aug-20 11:34N 37°48' W 122°24'0 0.0
2016-Aug-20 10:33N 37°48' W 122°24'2 1.6
2016-Aug-20 09:34N 37°49' W 122°25'2 1.6
2016-Aug-20 08:33N 37°48' W 122°24'0 0.0
2016-Aug-20 07:34N 37°48' W 122°24'0 0.0
2016-Aug-20 06:33N 37°48' W 122°24'0 0.0
2016-Aug-20 05:33N 37°48' W 122°24'0 0.0
2016-Aug-20 04:33N 37°48' W 122°24'0 0.0
2016-Aug-20 03:33N 37°48' W 122°24'3 3.4
2016-Aug-20 02:33N 37°48' W 122°20'9 8.7
2016-Aug-20 01:34N 37°49' W 122°30'5 5.3
2016-Aug-20 00:33N 37°48' W 122°24'3 3.1
2016-Aug-19 23:33N 37°48' W 122°20'1 1.3
2016-Aug-19 22:34N 37°48' W 122°22'2 1.8
2016-Aug-19 21:33N 37°48' W 122°24'0 0.0
2016-Aug-19 20:33N 37°48' W 122°24'0 0.0
2016-Aug-19 19:33N 37°48' W 122°24'0 0.0
2016-Aug-19 18:33N 37°48' W 122°24'0 0.0
2016-Aug-19 17:33N 37°48' W 122°24'0 0.0
2016-Aug-19 16:33N 37°48' W 122°24'0 0.0
2016-Aug-19 15:33N 37°48' W 122°24'0 0.0
2016-Aug-19 14:33N 37°48' W 122°24'0 0.0
2016-Aug-19 13:33N 37°48' W 122°24'0 0.0
2016-Aug-19 12:33N 37°48' W 122°24'0 0.0
2016-Aug-19 11:33N 37°48' W 122°24'0 0.0
2016-Aug-19 10:33N 37°48' W 122°24'3 2.6
2016-Aug-19 09:34N 37°48' W 122°21'2 2.1
2016-Aug-19 08:34N 37°46' W 122°21'3 2.6
2016-Aug-19 07:33N 37°48' W 122°24'0 0.0
2016-Aug-19 06:33N 37°48' W 122°24'0 0.0
2016-Aug-19 05:33N 37°48' W 122°24'0 0.0
2016-Aug-19 04:33N 37°48' W 122°24'1 0.8
2016-Aug-19 03:33N 37°48' W 122°23'2 1.7
2016-Aug-19 02:33N 37°48' W 122°21'3 2.5
2016-Aug-19 01:34N 37°48' W 122°24'0 0.0
2016-Aug-19 00:33N 37°48' W 122°24'0 0.0
2016-Aug-18 23:33N 37°48' W 122°24'0 0.0
2016-Aug-18 22:33N 37°48' W 122°24'0 0.0
2016-Aug-18 21:34N 37°48' W 122°24'9 8.1
2016-Aug-18 20:29N 37°47' W 122°35'9 9.4
2016-Aug-18 19:34N 37°48' W 122°24'0 0.0
2016-Aug-18 18:33N 37°48' W 122°24'1 1.4
2016-Aug-18 17:33N 37°47' W 122°22'1 1.4
2016-Aug-18 16:33N 37°48' W 122°24'0 0.0
2016-Aug-18 15:33N 37°48' W 122°24'1 0.9
2016-Aug-18 14:10N 37°49' W 122°25'4 6.1
2016-Aug-18 13:34N 37°49' W 122°30'5 4.9
2016-Aug-18 12:33N 37°48' W 122°24'1 0.8
2016-Aug-18 11:34N 37°48' W 122°23'1 0.8
2016-Aug-18 10:33N 37°48' W 122°24'2 2.2
2016-Aug-18 09:34N 37°48' W 122°21'1 1.5
2016-Aug-18 08:34N 37°47' W 122°23'2 2.3
2016-Aug-18 07:34N 37°49' W 122°25'1 1.2
2016-Aug-18 06:33N 37°48' W 122°24'6 5.6
2016-Aug-18 05:34N 37°44' W 122°19'6 5.6
2016-Aug-18 04:33N 37°48' W 122°24'4 4.0
2016-Aug-18 03:34N 37°49' W 122°29'4 4.3
2016-Aug-18 02:33N 37°47' W 122°34'6 5.7
2016-Aug-18 01:33N 37°49' W 122°27'5 4.5
2016-Aug-18 00:33N 37°46' W 122°22'3 3.1
2016-Aug-17 23:34N 37°49' W 122°20'1 1.4
2016-Aug-17 22:34N 37°48' W 122°19'4 4.1
2016-Aug-17 21:33N 37°48' W 122°24'0 0.0
2016-Aug-17 20:34N 37°48' W 122°24'0 0.0
2016-Aug-17 19:33N 37°48' W 122°24'0 0.0
2016-Aug-17 18:34N 37°48' W 122°24'0 0.0
2016-Aug-17 17:34N 37°48' W 122°24'0 0.0
2016-Aug-17 16:33N 37°48' W 122°24'0 0.0
2016-Aug-17 15:34N 37°48' W 122°24'0 0.0
2016-Aug-17 14:33N 37°48' W 122°24'0 0.0
2016-Aug-17 13:33N 37°48' W 122°24'0 0.0
2016-Aug-17 12:33N 37°48' W 122°24'0 0.0
2016-Aug-17 11:33N 37°48' W 122°24'3 3.4
2016-Aug-17 10:34N 37°49' W 122°28'3 3.3
2016-Aug-17 09:33N 37°48' W 122°24'2 2.1
2016-Aug-17 08:33N 37°48' W 122°21'1 0.6
2016-Aug-17 07:34N 37°48' W 122°22'1 0.5
2016-Aug-17 06:34N 37°47' W 122°22'3 3.0
2016-Aug-17 05:33N 37°49' W 122°25'1 1.3
2016-Aug-17 04:34N 37°48' W 122°24'0 0.0
2016-Aug-17 03:33N 37°48' W 122°24'0 0.0
2016-Aug-17 02:34N 37°48' W 122°24'0 0.0
2016-Aug-17 01:34N 37°48' W 122°24'0 0.0
2016-Aug-17 00:33N 37°48' W 122°24'0 0.0
2016-Aug-16 23:33N 37°48' W 122°24'1 1.2
2016-Aug-16 22:33N 37°49' W 122°25'4 3.7
2016-Aug-16 21:34N 37°47' W 122°21'3 2.6
2016-Aug-16 20:33N 37°48' W 122°24'0 0.0
2016-Aug-16 19:33N 37°48' W 122°24'0 0.0
2016-Aug-16 18:33N 37°48' W 122°24'0 0.0
2016-Aug-16 17:33N 37°48' W 122°24'1 1.2
2016-Aug-16 16:33N 37°49' W 122°25'2 1.7
2016-Aug-16 15:33N 37°49' W 122°27'6 6.1
2016-Aug-16 14:33N 37°49' W 122°20'3 2.5
2016-Aug-16 13:33N 37°48' W 122°22'1 1.2
2016-Aug-16 12:33N 37°48' W 122°24'0 0.0
2016-Aug-16 11:33N 37°48' W 122°24'0 0.0
2016-Aug-16 10:33N 37°48' W 122°24'0 0.0
2016-Aug-16 09:33N 37°48' W 122°24'0 0.0
2016-Aug-16 08:33N 37°48' W 122°24'0 0.0
2016-Aug-16 07:33N 37°48' W 122°24'0 0.0
2016-Aug-16 04:33N 37°48' W 122°24'  
Track history (hours):
 
Tides and Currents Weather Stations Pressure Air Temp Water Temp Dewpoint Dewpoint Depression Visibility Wind Speed Wind Dir Waves Ship Positions

P/v Golden Gate

Owner: San Francisco Bar Pilots Benevolent and Protective, San Francisco, CA. More information available from US FCC via Universal Licensing System and Coast Guard Vessel Documentation Center.

Last reported at 2016-Aug-26 04:33 UTC. Time now 2016-Aug-26 06:48 UTC.
Position N 37°48' W 122°24'.

Length 23 m; draft 2 m.

Type: Pilot. MMSI: 367370010.

Date/timePositionNaut miles runAvg speedWind from/ knotsBaromVisibWave heightAir tempDewpointWater temp
2016-Aug-26 04:33N 37°48' W 122°24'0 0.0
2016-Aug-26 03:33N 37°48' W 122°24'0 0.0
2016-Aug-26 02:33N 37°48' W 122°24'8 7.3
2016-Aug-26 01:26N 37°47' W 122°34'8 9.4
2016-Aug-26 00:33N 37°48' W 122°24'0 0.0
2016-Aug-25 23:34N 37°48' W 122°24'3 3.4
2016-Aug-25 22:34N 37°45' W 122°21'1111.0
2016-Aug-25 21:34N 37°47' W 122°35'9 8.9
2016-Aug-25 20:33N 37°48' W 122°24'0 0.2
2016-Aug-25 19:33N 37°48' W 122°24'0 0.0
2016-Aug-25 18:33N 37°48' W 122°24'0 0.0
2016-Aug-25 17:33N 37°48' W 122°24'1 1.0
2016-Aug-25 16:33N 37°49' W 122°25'1 0.5
2016-Aug-25 15:33N 37°49' W 122°25'3 2.9
2016-Aug-25 14:34N 37°48' W 122°22'2 1.6
2016-Aug-25 13:33N 37°48' W 122°20'3 3.3
2016-Aug-25 12:33N 37°48' W 122°24'0 0.0
2016-Aug-25 11:33N 37°48' W 122°24'0 0.0
2016-Aug-25 10:33N 37°48' W 122°24'0 0.0
2016-Aug-25 09:33N 37°48' W 122°24'3 3.3
2016-Aug-25 08:34N 37°46' W 122°21'3 3.3
2016-Aug-25 07:34N 37°48' W 122°24'0 0.0
2016-Aug-25 06:34N 37°48' W 122°24'1 0.4
2016-Aug-25 04:33N 37°48' W 122°23'1 0.8
2016-Aug-25 03:33N 37°48' W 122°24'0 0.1
2016-Aug-25 02:34N 37°48' W 122°24'1 1.0
2016-Aug-25 01:34N 37°49' W 122°25'1 1.1
2016-Aug-25 00:33N 37°48' W 122°24'0 0.0
2016-Aug-24 23:34N 37°48' W 122°24'0 0.0
2016-Aug-24 22:33N 37°48' W 122°24'0 0.0
2016-Aug-24 21:33N 37°48' W 122°24'1 1.2
2016-Aug-24 20:33N 37°49' W 122°25'1 1.2
2016-Aug-24 19:33N 37°48' W 122°24'0 0.0
2016-Aug-24 18:34N 37°48' W 122°24'0 0.0
2016-Aug-24 17:33N 37°48' W 122°24'5 4.7
2016-Aug-24 16:33N 37°48' W 122°18'5 4.7
2016-Aug-24 15:34N 37°48' W 122°24'0 0.5
2016-Aug-24 14:34N 37°48' W 122°23'4 3.7
2016-Aug-24 13:33N 37°48' W 122°19'4 4.1
2016-Aug-24 12:33N 37°48' W 122°24'0 0.0
2016-Aug-24 11:33N 37°48' W 122°24'0 0.0
2016-Aug-24 10:33N 37°48' W 122°24'0 0.0
2016-Aug-24 09:33N 37°48' W 122°24'0 0.0
2016-Aug-24 08:33N 37°48' W 122°24'0 0.0
2016-Aug-24 07:33N 37°48' W 122°24'0 0.0
2016-Aug-24 06:33N 37°48' W 122°24'0 0.0
2016-Aug-24 04:33N 37°48' W 122°24'0 0.0
2016-Aug-24 03:33N 37°48' W 122°24'0 0.0
2016-Aug-24 02:33N 37°48' W 122°24'0 0.0
2016-Aug-24 01:33N 37°48' W 122°24'0 0.1
2016-Aug-24 00:34N 37°48' W 122°24'0 0.1
2016-Aug-23 23:34N 37°48' W 122°24'0 0.0
2016-Aug-23 22:32N 37°48' W 122°24'0 0.0
2016-Aug-23 21:34N 37°48' W 122°24'0 0.0
2016-Aug-23 20:33N 37°48' W 122°24'1 0.7
2016-Aug-23 19:33N 37°48' W 122°23'2 1.9
2016-Aug-23 18:33N 37°49' W 122°25'1 1.1
2016-Aug-23 17:33N 37°50' W 122°25'2 2.1
2016-Aug-23 16:33N 37°49' W 122°27'6 6.0
2016-Aug-23 15:34N 37°48' W 122°20'3 3.1
2016-Aug-23 14:33N 37°48' W 122°24'0 0.0
2016-Aug-23 13:33N 37°48' W 122°24'3 3.3
2016-Aug-23 12:34N 37°48' W 122°20'3 3.3
2016-Aug-23 11:33N 37°48' W 122°24'4 4.2
2016-Aug-23 10:34N 37°45' W 122°21'4 4.2
2016-Aug-23 09:33N 37°48' W 122°24'3 3.2
2016-Aug-23 08:33N 37°48' W 122°20'3 2.7
2016-Aug-23 07:34N 37°45' W 122°21'4 3.6
2016-Aug-23 06:33N 37°48' W 122°24'0 0.0
2016-Aug-23 05:33N 37°48' W 122°24'4 3.7
2016-Aug-23 04:33N 37°49' W 122°28'6 5.4
2016-Aug-23 03:31N 37°47' W 122°35'9 9.1
2016-Aug-23 02:33N 37°48' W 122°24'0 0.0
2016-Aug-23 01:33N 37°48' W 122°24'3 3.1
2016-Aug-23 00:33N 37°45' W 122°23'3 3.1
2016-Aug-22 23:33N 37°48' W 122°24'0 0.0
2016-Aug-22 22:34N 37°48' W 122°24'0 0.2
2016-Aug-22 21:34N 37°48' W 122°24'1212.3
2016-Aug-22 20:33N 37°45' W 122°39'1212.3
2016-Aug-22 19:33N 37°48' W 122°24'0 0.0
2016-Aug-22 18:33N 37°48' W 122°24'0 0.0
2016-Aug-22 17:33N 37°48' W 122°24'2 2.0
2016-Aug-22 16:33N 37°47' W 122°22'2 2.0
2016-Aug-22 15:33N 37°48' W 122°24'0 0.0
2016-Aug-22 14:33N 37°48' W 122°24'1 1.2
2016-Aug-22 13:34N 37°49' W 122°25'1 1.2
2016-Aug-22 12:33N 37°48' W 122°24'1311.7
2016-Aug-22 11:29N 37°46' W 122°39'1314.3
2016-Aug-22 10:33N 37°49' W 122°23'3 2.9
2016-Aug-22 09:34N 37°48' W 122°20'3 3.3
2016-Aug-22 08:34N 37°48' W 122°24'3 2.6
2016-Aug-22 07:34N 37°46' W 122°21'5 5.0
2016-Aug-22 06:33N 37°49' W 122°27'3 2.5
2016-Aug-22 05:33N 37°48' W 122°24'3 3.0
2016-Aug-22 04:33N 37°46' W 122°21'2 2.2
2016-Aug-22 03:33N 37°48' W 122°21'2 1.9
2016-Aug-22 02:33N 37°48' W 122°24'0 0.0
2016-Aug-22 01:33N 37°48' W 122°24'0 0.0
2016-Aug-22 00:33N 37°48' W 122°24'1 1.1
2016-Aug-21 23:34N 37°49' W 122°25'1 1.1
2016-Aug-21 22:34N 37°48' W 122°24'1110.9
2016-Aug-21 21:33N 37°46' W 122°37'1110.8
2016-Aug-21 20:33N 37°48' W 122°24'0 0.0
2016-Aug-21 19:33N 37°48' W 122°24'0 0.0
2016-Aug-21 18:33N 37°48' W 122°24'0 0.0
2016-Aug-21 17:33N 37°48' W 122°24'0 0.0
2016-Aug-21 16:33N 37°48' W 122°24'0 0.0
2016-Aug-21 15:33N 37°48' W 122°24'0 0.0
2016-Aug-21 14:33N 37°48' W 122°24'0 0.0
2016-Aug-21 13:33N 37°48' W 122°24'0 0.0
2016-Aug-21 12:33N 37°48' W 122°24'3 3.1
2016-Aug-21 11:34N 37°46' W 122°21'3 3.1
2016-Aug-21 10:34N 37°48' W 122°24'1111.1
2016-Aug-21 09:33N 37°46' W 122°38'1211.6
2016-Aug-21 08:34N 37°48' W 122°23'0 0.4
2016-Aug-21 07:33N 37°48' W 122°24'0 0.0
2016-Aug-21 06:33N 37°48' W 122°24'1 1.0
2016-Aug-21 05:33N 37°48' W 122°23'1 1.1
2016-Aug-21 04:34N 37°47' W 122°22'2 1.8
2016-Aug-21 03:33N 37°48' W 122°24'0 0.3
2016-Aug-21 02:33N 37°48' W 122°23'7 7.2
2016-Aug-21 01:33N 37°48' W 122°33'7 7.1
2016-Aug-21 00:34N 37°48' W 122°24'0 0.0
2016-Aug-20 23:33N 37°48' W 122°24'0 0.0
2016-Aug-20 22:33N 37°48' W 122°24'0 0.0
2016-Aug-20 21:33N 37°48' W 122°24'0 0.0
2016-Aug-20 20:34N 37°48' W 122°24'4 4.1
2016-Aug-20 19:34N 37°49' W 122°29'4 4.1
2016-Aug-20 18:34N 37°48' W 122°24'1 0.7
2016-Aug-20 17:34N 37°49' W 122°24'1 0.7
2016-Aug-20 16:33N 37°48' W 122°24'5 4.9
2016-Aug-20 15:33N 37°44' W 122°20'6 4.6
2016-Aug-20 14:15N 37°49' W 122°25'1 1.8
2016-Aug-20 13:33N 37°48' W 122°24'3 2.7
2016-Aug-20 12:33N 37°49' W 122°27'3 2.7
2016-Aug-20 11:34N 37°48' W 122°24'0 0.0
2016-Aug-20 10:33N 37°48' W 122°24'2 1.6
2016-Aug-20 09:34N 37°49' W 122°25'2 1.6
2016-Aug-20 08:33N 37°48' W 122°24'0 0.0
2016-Aug-20 07:34N 37°48' W 122°24'0 0.0
2016-Aug-20 06:33N 37°48' W 122°24'0 0.0
2016-Aug-20 05:33N 37°48' W 122°24'0 0.0
2016-Aug-20 04:33N 37°48' W 122°24'0 0.0
2016-Aug-20 03:33N 37°48' W 122°24'3 3.4
2016-Aug-20 02:33N 37°48' W 122°20'9 8.7
2016-Aug-20 01:34N 37°49' W 122°30'5 5.3
2016-Aug-20 00:33N 37°48' W 122°24'3 3.1
2016-Aug-19 23:33N 37°48' W 122°20'1 1.3
2016-Aug-19 22:34N 37°48' W 122°22'2 1.8
2016-Aug-19 21:33N 37°48' W 122°24'0 0.0
2016-Aug-19 20:33N 37°48' W 122°24'0 0.0
2016-Aug-19 19:33N 37°48' W 122°24'0 0.0
2016-Aug-19 18:33N 37°48' W 122°24'0 0.0
2016-Aug-19 17:33N 37°48' W 122°24'0 0.0
2016-Aug-19 16:33N 37°48' W 122°24'0 0.0
2016-Aug-19 15:33N 37°48' W 122°24'0 0.0
2016-Aug-19 14:33N 37°48' W 122°24'0 0.0
2016-Aug-19 13:33N 37°48' W 122°24'0 0.0
2016-Aug-19 12:33N 37°48' W 122°24'0 0.0
2016-Aug-19 11:33N 37°48' W 122°24'0 0.0
2016-Aug-19 10:33N 37°48' W 122°24'3 2.6
2016-Aug-19 09:34N 37°48' W 122°21'2 2.1
2016-Aug-19 08:34N 37°46' W 122°21'3 2.6
2016-Aug-19 07:33N 37°48' W 122°24'0 0.0
2016-Aug-19 06:33N 37°48' W 122°24'0 0.0
2016-Aug-19 05:33N 37°48' W 122°24'0 0.0
2016-Aug-19 04:33N 37°48' W 122°24'1 0.8
2016-Aug-19 03:33N 37°48' W 122°23'2 1.7
2016-Aug-19 02:33N 37°48' W 122°21'3 2.5
2016-Aug-19 01:34N 37°48' W 122°24'0 0.0
2016-Aug-19 00:33N 37°48' W 122°24'0 0.0
2016-Aug-18 23:33N 37°48' W 122°24'0 0.0
2016-Aug-18 22:33N 37°48' W 122°24'0 0.0
2016-Aug-18 21:34N 37°48' W 122°24'9 8.1
2016-Aug-18 20:29N 37°47' W 122°35'9 9.4
2016-Aug-18 19:34N 37°48' W 122°24'0 0.0
2016-Aug-18 18:33N 37°48' W 122°24'1 1.4
2016-Aug-18 17:33N 37°47' W 122°22'1 1.4
2016-Aug-18 16:33N 37°48' W 122°24'0 0.0
2016-Aug-18 15:33N 37°48' W 122°24'1 0.9
2016-Aug-18 14:10N 37°49' W 122°25'4 6.1
2016-Aug-18 13:34N 37°49' W 122°30'5 4.9
2016-Aug-18 12:33N 37°48' W 122°24'1 0.8
2016-Aug-18 11:34N 37°48' W 122°23'1 0.8
2016-Aug-18 10:33N 37°48' W 122°24'2 2.2
2016-Aug-18 09:34N 37°48' W 122°21'1 1.5
2016-Aug-18 08:34N 37°47' W 122°23'2 2.3
2016-Aug-18 07:34N 37°49' W 122°25'1 1.2
2016-Aug-18 06:33N 37°48' W 122°24'6 5.6
2016-Aug-18 05:34N 37°44' W 122°19'6 5.6
2016-Aug-18 04:33N 37°48' W 122°24'4 4.0
2016-Aug-18 03:34N 37°49' W 122°29'4 4.3
2016-Aug-18 02:33N 37°47' W 122°34'6 5.7
2016-Aug-18 01:33N 37°49' W 122°27'5 4.5
2016-Aug-18 00:33N 37°46' W 122°22'3 3.1
2016-Aug-17 23:34N 37°49' W 122°20'1 1.4
2016-Aug-17 22:34N 37°48' W 122°19'4 4.1
2016-Aug-17 21:33N 37°48' W 122°24'0 0.0
2016-Aug-17 20:34N 37°48' W 122°24'0 0.0
2016-Aug-17 19:33N 37°48' W 122°24'0 0.0
2016-Aug-17 18:34N 37°48' W 122°24'0 0.0
2016-Aug-17 17:34N 37°48' W 122°24'0 0.0
2016-Aug-17 16:33N 37°48' W 122°24'0 0.0
2016-Aug-17 15:34N 37°48' W 122°24'0 0.0
2016-Aug-17 14:33N 37°48' W 122°24'0 0.0
2016-Aug-17 13:33N 37°48' W 122°24'0 0.0
2016-Aug-17 12:33N 37°48' W 122°24'0 0.0
2016-Aug-17 11:33N 37°48' W 122°24'3 3.4
2016-Aug-17 10:34N 37°49' W 122°28'3 3.3
2016-Aug-17 09:33N 37°48' W 122°24'2 2.1
2016-Aug-17 08:33N 37°48' W 122°21'1 0.6
2016-Aug-17 07:34N 37°48' W 122°22'1 0.5
2016-Aug-17 06:34N 37°47' W 122°22'3 3.0
2016-Aug-17 05:33N 37°49' W 122°25'1 1.3
2016-Aug-17 04:34N 37°48' W 122°24'0 0.0
2016-Aug-17 03:33N 37°48' W 122°24'0 0.0
2016-Aug-17 02:34N 37°48' W 122°24'0 0.0
2016-Aug-17 01:34N 37°48' W 122°24'0 0.0
2016-Aug-17 00:33N 37°48' W 122°24'0 0.0
2016-Aug-16 23:33N 37°48' W 122°24'1 1.2
2016-Aug-16 22:33N 37°49' W 122°25'4 3.7
2016-Aug-16 21:34N 37°47' W 122°21'3 2.6
2016-Aug-16 20:33N 37°48' W 122°24'0 0.0
2016-Aug-16 19:33N 37°48' W 122°24'0 0.0
2016-Aug-16 18:33N 37°48' W 122°24'0 0.0
2016-Aug-16 17:33N 37°48' W 122°24'1 1.2
2016-Aug-16 16:33N 37°49' W 122°25'2 1.7
2016-Aug-16 15:33N 37°49' W 122°27'6 6.1
2016-Aug-16 14:33N 37°49' W 122°20'3 2.5
2016-Aug-16 13:33N 37°48' W 122°22'1 1.2
2016-Aug-16 12:33N 37°48' W 122°24'0 0.0
2016-Aug-16 11:33N 37°48' W 122°24'0 0.0
2016-Aug-16 10:33N 37°48' W 122°24'0 0.0
2016-Aug-16 09:33N 37°48' W 122°24'0 0.0
2016-Aug-16 08:33N 37°48' W 122°24'0 0.0
2016-Aug-16 07:33N 37°48' W 122°24'0 0.0
2016-Aug-16 04:33N 37°48' W 122°24'  

Dump ship's entire track history